Brady, TX

9:45 PM CDT on May 25, 2015 (GMT -0500)
Amateur Radio Station K5PW | | Change Station
CLOSE
Current Station
Personal Weather Station
Location: Brady, TX
Elevation: 1860 ft
Nearby Weather Stations

Elev 1860 ft 31.20 °N, 99.37 °W | Updated 16 seconds ago

Clear
Clear
65.9 °F
Feels Like 65.9 °F
N
0.0
Wind Variable Wind from NNW
Gusts 0.0 mph

Today
High -- | Low -- °F
--% Chance of Precip.
Yesterday
High -- | Low -- °F
Precip. -- in
6:36 AM 8:32 PM
First Quarter, 54% visible
Pressure 29.88 in
Visibility 10.0 miles
Clouds Clear
Dew Point 62 °F
Humidity 87%
Rainfall 0.32 in
Snow Depth Not available.
UV 0 out of 12
Pollen 3.30 out of 12
Air Quality Not available.
Flu Activity Sporadic
METAR KBBD 260235Z AUTO 12004KT 10SM CLR 19/17 A2988 RMK

More Conditions Fewer Conditions

Pressure 29.88 in
Visibility 10.0 miles
Clouds Clear
Dew Point 62 °F
Humidity 87%
Rainfall 0.32 in
Snow Depth Not available.
UV 0 out of 12
Pollen 3.30 out of 12
Air Quality Not available.
Flu Activity Sporadic
METAR KBBD 260235Z AUTO 12004KT 10SM CLR 19/17 A2988 RMK

More Conditions Fewer Conditions

10-Day Weather Forecast

Almanac

Astronomy

May. 25, 2015 Rise Set
Actual Time
Civil Twilight
Nautical Twilight
Astronomical Twilight
Moon
Length of Visible Light
Length of Day
Tomorrow will be .
, % of the Moon is Illuminated

Today's Extremes

State Highs State Lows

Community

WunderPhotos

Upload Photos

1,824,238 photos uploaded!

WunderBlogs® & News

Nearby

Air Quality

  Air Quality AQ Index Pollutant
Not available.

Snow Depth

Station Depth Elevation

Earthquake Activity

City Distance Mag. Time & Date
Minimum magnitude displayed is 2.5.

Coastal Water Temperatures

Place Temperature

Stations

Nearby Weather Stations

Station Location Temp. Windchill Dew Point Humidity Wind Precip. Elev Updated Type